Time;durP1;ratioP1;P1;durP2;ratioP2;P2;SDS_P1;SDS_P2;PMS_P1;PMS_P2;Temp;Humidity;BMP_temperature;BMP_pressure;BME280_temperature;BME280_humidity;BME280_pressure;Samples;Min_cycle;Max_cycle;Signal;HPM_P1;HPM_P2
2022/03/26 00:06:15;;;;;;;14.15;4.70;;;8.30;99.90;;;;;;20778662;28;20037;-48
2022/03/26 00:16:16;;;;;;;16.55;6.32;;;8.10;99.90;;;;;;20778544;28;20037;-48
2022/03/26 00:26:17;;;;;;;14.82;4.97;;;8.00;99.90;;;;;;20782242;28;20062;-47
2022/03/26 00:36:19;;;;;;;17.88;5.57;;;7.80;99.90;;;;;;20778518;28;20052;-48
2022/03/26 00:46:21;;;;;;;12.75;5.18;;;7.80;99.90;;;;;;20776453;28;20595;-48
2022/03/26 00:56:22;;;;;;;13.93;6.65;;;7.80;99.90;;;;;;20788624;28;20049;-47
2022/03/26 01:06:23;;;;;;;18.33;6.10;;;7.80;99.90;;;;;;20817212;28;20042;-48
2022/03/26 01:16:25;;;;;;;15.95;5.70;;;7.80;99.90;;;;;;20818380;28;20124;-48
2022/03/26 01:26:27;;;;;;;16.75;5.53;;;7.80;99.90;;;;;;20825848;28;20061;-47
2022/03/26 01:36:31;;;;;;;12.65;4.82;;;7.60;99.90;;;;;;20788154;28;20053;-48
2022/03/26 01:46:51;;;;;;;17.05;4.75;;;7.50;99.90;;;;;;20775638;28;20045;-47
2022/03/26 01:56:52;;;;;;;16.58;6.75;;;7.50;99.90;;;;;;20773932;28;20053;-47
2022/03/26 02:06:54;;;;;;;13.10;4.80;;;7.50;99.90;;;;;;20778653;28;20045;-48
2022/03/26 02:16:55;;;;;;;14.05;5.40;;;7.40;99.90;;;;;;20774824;28;20092;-48
2022/03/26 02:26:56;;;;;;;20.08;6.38;;;7.30;99.90;;;;;;20795576;28;20060;-47
2022/03/26 02:36:58;;;;;;;15.88;5.32;;;7.20;99.90;;;;;;20791162;28;20049;-47
2022/03/26 02:46:59;;;;;;;17.23;6.63;;;7.10;99.90;;;;;;20789269;28;20061;-47
2022/03/26 02:57:00;;;;;;;23.13;6.50;;;7.00;99.90;;;;;;20791543;28;20042;-48
2022/03/26 03:07:02;;;;;;;18.00;6.72;;;6.90;99.90;;;;;;20789492;28;20060;-47
2022/03/26 03:17:04;;;;;;;20.33;7.30;;;6.80;99.90;;;;;;20784370;28;20409;-47
2022/03/26 03:27:05;;;;;;;19.02;7.18;;;6.80;99.90;;;;;;20795064;28;20060;-47
2022/03/26 03:37:06;;;;;;;16.55;5.35;;;6.70;99.90;;;;;;20795273;28;20042;-47
2022/03/26 03:47:08;;;;;;;20.42;6.57;;;6.50;99.90;;;;;;20792932;28;20378;-47
2022/03/26 03:57:09;;;;;;;18.92;6.22;;;6.40;99.90;;;;;;20794675;28;20049;-47
2022/03/26 04:07:10;;;;;;;18.52;6.47;;;6.40;99.90;;;;;;20788990;28;20041;-47
2022/03/26 04:17:12;;;;;;;21.70;6.82;;;6.20;99.90;;;;;;20788314;28;20617;-47
2022/03/26 04:27:13;;;;;;;19.13;7.43;;;6.20;99.90;;;;;;20775595;28;20116;-47
2022/03/26 04:37:15;;;;;;;22.15;6.85;;;6.10;99.90;;;;;;20773346;28;20045;-47
2022/03/26 04:47:20;;;;;;;20.17;8.02;;;6.00;99.90;;;;;;20771471;28;20071;-48
2022/03/26 04:57:21;;;;;;;22.35;8.15;;;5.90;99.90;;;;;;20754292;28;20038;-47
2022/03/26 05:17:42;;;;;;;21.42;7.43;;;5.70;99.90;;;;;;20767443;28;20045;-47
2022/03/26 05:27:45;;;;;;;20.92;8.15;;;5.80;99.90;;;;;;20770139;28;20037;-48
2022/03/26 05:37:47;;;;;;;27.95;7.97;;;5.70;99.90;;;;;;20770110;28;20041;-47
2022/03/26 05:47:51;;;;;;;19.55;6.78;;;5.60;99.90;;;;;;20763860;28;20210;-47
2022/03/26 05:57:52;;;;;;;18.75;7.15;;;5.60;99.90;;;;;;20765892;28;20053;-47
2022/03/26 06:07:53;;;;;;;24.30;8.32;;;5.50;99.90;;;;;;20780706;28;20424;-47
2022/03/26 06:17:54;;;;;;;19.55;7.93;;;5.60;99.90;;;;;;20777224;28;20056;-47
2022/03/26 06:27:55;;;;;;;24.77;8.35;;;5.70;99.90;;;;;;20774671;28;20500;-47
2022/03/26 06:37:56;;;;;;;23.48;8.80;;;5.80;99.90;;;;;;20766680;28;20058;-47
2022/03/26 06:47:58;;;;;;;22.23;9.18;;;5.90;99.90;;;;;;20780694;28;20038;-47
2022/03/26 06:57:59;;;;;;;23.25;7.97;;;6.00;99.90;;;;;;20768730;28;20041;-47
2022/03/26 07:08:00;;;;;;;36.00;9.82;;;6.30;99.90;;;;;;20775674;28;20060;-46
2022/03/26 07:18:01;;;;;;;35.97;11.35;;;6.70;99.90;;;;;;20732952;28;20052;-47
2022/03/26 07:28:03;;;;;;;32.63;10.25;;;7.10;99.90;;;;;;20779769;28;20072;-46
2022/03/26 07:38:05;;;;;;;27.83;9.07;;;7.60;99.90;;;;;;20770236;28;20048;-47
2022/03/26 07:48:06;;;;;;;25.85;8.27;;;8.30;99.90;;;;;;20787262;28;20033;-46
2022/03/26 07:58:07;;;;;;;26.20;8.75;;;8.90;99.90;;;;;;20734085;28;20281;-47
2022/03/26 08:08:08;;;;;;;32.13;10.45;;;9.40;99.90;;;;;;20768775;28;20572;-47
2022/03/26 08:18:09;;;;;;;28.77;10.27;;;9.90;99.90;;;;;;20725076;28;20057;-47
2022/03/26 08:28:14;;;;;;;30.40;10.30;;;10.40;99.90;;;;;;20781632;28;20499;-47
2022/03/26 08:38:15;;;;;;;35.30;10.40;;;10.90;99.90;;;;;;20773325;28;20038;-47
2022/03/26 08:48:16;;;;;;;29.58;10.15;;;11.40;99.90;;;;;;20768773;28;20471;-47
2022/03/26 08:58:18;;;;;;;25.90;8.07;;;11.90;99.90;;;;;;20757150;28;20052;-47
2022/03/26 09:08:20;;;;;;;24.50;9.27;;;12.40;99.90;;;;;;20747047;28;20046;-47
2022/03/26 09:18:22;;;;;;;29.02;9.40;;;12.80;99.90;;;;;;20764168;28;20053;-48
2022/03/26 09:28:23;;;;;;;23.88;8.35;;;13.10;99.90;;;;;;20764714;28;20048;-47
2022/03/26 09:38:24;;;;;;;27.23;9.80;;;13.20;99.90;;;;;;20775673;28;20040;-47
2022/03/26 09:48:26;;;;;;;26.80;9.15;;;13.40;99.90;;;;;;20781816;28;20060;-47
2022/03/26 09:58:27;;;;;;;21.70;7.78;;;13.60;99.90;;;;;;20780302;28;20670;-47
2022/03/26 10:08:37;;;;;;;26.98;9.77;;;13.80;99.90;;;;;;20783983;28;20228;-47
2022/03/26 10:18:41;;;;;;;19.58;8.07;;;14.30;99.90;;;;;;20793882;28;20060;-47
2022/03/26 10:28:48;;;;;;;25.00;9.35;;;14.60;99.90;;;;;;20798769;28;20496;-47
2022/03/26 10:38:50;;;;;;;34.37;10.17;;;14.80;99.90;;;;;;20784984;28;20531;-48
2022/03/26 10:49:02;;;;;;;31.65;11.05;;;15.10;99.90;;;;;;20800434;28;20046;-47
2022/03/26 10:59:04;;;;;;;31.30;12.13;;;15.20;99.90;;;;;;20785843;28;20053;-47
2022/03/26 11:09:06;;;;;;;32.05;10.52;;;15.80;99.90;;;;;;20787504;28;20065;-47
2022/03/26 11:19:27;;;;;;;28.30;11.50;;;16.00;99.90;;;;;;20784143;28;20797;-47
2022/03/26 11:29:46;;;;;;;29.55;9.23;;;16.30;99.90;;;;;;20786510;28;20041;-47
2022/03/26 11:39:51;;;;;;;20.73;7.82;;;16.80;99.90;;;;;;20779996;28;21201;-48
2022/03/26 12:00:17;;;;;;;21.85;7.43;;;17.60;99.00;;;;;;20785260;28;20056;-47
2022/03/26 12:10:19;;;;;;;17.55;6.97;;;17.70;99.40;;;;;;20789041;28;20176;-47
2022/03/26 12:20:25;;;;;;;16.42;6.45;;;17.80;99.50;;;;;;20787861;28;20630;-48
2022/03/26 12:30:27;;;;;;;20.97;7.30;;;18.60;97.90;;;;;;20778771;28;20042;-48
2022/03/26 12:40:28;;;;;;;19.75;5.85;;;18.50;97.40;;;;;;20757040;28;20057;-48
2022/03/26 12:50:36;;;;;;;15.90;5.65;;;18.30;97.00;;;;;;20778988;28;20045;-47
2022/03/26 13:00:37;;;;;;;9.80;4.35;;;18.80;96.80;;;;;;20762241;28;21699;-50
2022/03/26 13:10:41;;;;;;;13.05;5.40;;;18.70;96.20;;;;;;20767906;28;20527;-48
2022/03/26 13:20:42;;;;;;;14.15;6.72;;;19.10;95.20;;;;;;20772553;28;20049;-47
2022/03/26 13:30:44;;;;;;;12.25;5.22;;;19.10;95.50;;;;;;20778016;28;20052;-48
2022/03/26 13:40:46;;;;;;;17.45;6.00;;;19.30;94.10;;;;;;20773282;28;20041;-48
2022/03/26 13:50:48;;;;;;;16.67;8.45;;;19.20;94.00;;;;;;20778187;28;20049;-48
2022/03/26 14:00:53;;;;;;;17.42;6.40;;;19.80;93.10;;;;;;20759822;28;20042;-47
2022/03/26 14:10:55;;;;;;;19.48;7.10;;;19.70;92.30;;;;;;20757719;28;20049;-49
2022/03/26 14:20:56;;;;;;;14.80;4.65;;;19.90;92.20;;;;;;20773193;28;20421;-48
2022/03/26 14:30:58;;;;;;;14.85;4.65;;;19.50;91.10;;;;;;20806980;28;20037;-48
2022/03/26 14:41:00;;;;;;;13.02;4.93;;;18.90;92.00;;;;;;20780972;28;20064;-48
2022/03/26 14:51:02;;;;;;;16.02;6.55;;;18.50;92.60;;;;;;20788762;28;20284;-47
2022/03/26 15:01:03;;;;;;;13.88;5.05;;;18.10;91.70;;;;;;20778161;28;20069;-47
2022/03/26 15:11:04;;;;;;;16.85;5.93;;;17.50;93.00;;;;;;20777167;28;20400;-48
2022/03/26 15:21:05;;;;;;;12.52;4.93;;;17.40;94.50;;;;;;20771416;28;20057;-47
2022/03/26 15:31:06;;;;;;;17.00;5.13;;;17.30;96.20;;;;;;20776890;28;20481;-48
2022/03/26 15:41:08;;;;;;;14.68;6.35;;;17.10;98.50;;;;;;20738476;28;20064;-47
2022/03/26 15:51:10;;;;;;;17.15;7.25;;;17.00;99.90;;;;;;20773432;28;20452;-48
2022/03/26 16:01:11;;;;;;;15.55;7.57;;;16.90;99.90;;;;;;20758474;28;20041;-47
2022/03/26 16:11:12;;;;;;;15.48;5.85;;;16.60;99.90;;;;;;20767547;28;20046;-47
2022/03/26 16:21:15;;;;;;;11.10;4.68;;;16.20;99.90;;;;;;20742806;28;20045;-47
2022/03/26 16:31:16;;;;;;;9.38;3.53;;;15.80;99.90;;;;;;20768300;28;20048;-47
2022/03/26 16:41:17;;;;;;;6.90;3.53;;;15.50;99.90;;;;;;20731580;28;20512;-47
2022/03/26 16:51:18;;;;;;;5.88;2.72;;;15.10;99.90;;;;;;20772088;28;20045;-47
2022/03/26 17:01:19;;;;;;;8.13;2.88;;;15.10;99.90;;;;;;20754232;28;20068;-47
2022/03/26 17:11:21;;;;;;;6.25;2.75;;;14.80;99.90;;;;;;20763888;28;20045;-47
2022/03/26 17:21:22;;;;;;;5.10;2.05;;;14.40;99.90;;;;;;20762872;28;20053;-47
2022/03/26 17:31:23;;;;;;;4.93;1.90;;;14.20;99.90;;;;;;20761325;28;20046;-47
2022/03/26 17:41:24;;;;;;;5.30;2.22;;;14.10;99.90;;;;;;20771347;28;20053;-47
2022/03/26 17:51:25;;;;;;;6.55;2.40;;;13.80;99.90;;;;;;20785125;28;20044;-47
2022/03/26 18:01:27;;;;;;;15.30;2.38;;;13.50;99.90;;;;;;20787682;28;20042;-47
2022/03/26 18:11:29;;;;;;;5.25;1.90;;;13.20;99.90;;;;;;20760224;28;20057;-47
2022/03/26 18:21:30;;;;;;;3.67;1.30;;;13.00;99.90;;;;;;20784902;28;20049;-48
2022/03/26 18:31:31;;;;;;;4.45;1.40;;;12.80;99.90;;;;;;20797892;28;20053;-47
2022/03/26 18:41:37;;;;;;;3.38;1.60;;;12.60;99.90;;;;;;20785853;28;20694;-47
2022/03/26 18:51:39;;;;;;;6.68;1.85;;;12.40;99.90;;;;;;20788831;28;20152;-48
2022/03/26 19:01:40;;;;;;;3.03;1.30;;;12.20;99.90;;;;;;20779315;28;20128;-47
2022/03/26 19:11:41;;;;;;;2.53;1.17;;;12.10;99.90;;;;;;20758698;28;20065;-53
2022/03/26 19:21:42;;;;;;;3.13;1.17;;;12.00;99.90;;;;;;20787396;28;20045;-47
2022/03/26 19:31:44;;;;;;;4.15;1.77;;;11.80;99.90;;;;;;20790440;28;20068;-48
2022/03/26 19:41:45;;;;;;;3.42;1.70;;;11.70;99.90;;;;;;20785195;28;20068;-48
2022/03/26 19:51:46;;;;;;;2.83;1.38;;;11.80;99.90;;;;;;20792958;28;20405;-47
2022/03/26 20:01:47;;;;;;;4.50;1.50;;;11.60;99.90;;;;;;20778402;28;20049;-48
2022/03/26 20:11:49;;;;;;;5.82;1.88;;;11.70;99.90;;;;;;20787789;28;20545;-47
2022/03/26 20:21:50;;;;;;;5.13;2.20;;;11.60;99.90;;;;;;20795622;28;20516;-47
2022/03/26 20:31:51;;;;;;;10.02;2.67;;;11.60;99.90;;;;;;20785679;28;20392;-47
2022/03/26 20:41:53;;;;;;;4.20;1.55;;;11.40;99.90;;;;;;20795249;28;20349;-47
2022/03/26 20:51:54;;;;;;;6.43;1.60;;;11.40;99.90;;;;;;20791959;28;20060;-48
2022/03/26 21:01:56;;;;;;;3.65;1.58;;;11.20;99.90;;;;;;20785881;28;20408;-48
2022/03/26 21:11:58;;;;;;;3.72;1.60;;;11.20;99.90;;;;;;20784501;28;20053;-47
2022/03/26 21:22:02;;;;;;;4.80;1.85;;;11.10;99.90;;;;;;20790011;28;20054;-48
2022/03/26 21:32:04;;;;;;;4.93;2.30;;;11.00;99.90;;;;;;20785647;28;20309;-47
2022/03/26 21:42:05;;;;;;;2.70;1.08;;;11.00;99.90;;;;;;20784494;28;20049;-47
2022/03/26 21:52:06;;;;;;;2.22;1.13;;;11.00;99.90;;;;;;20790555;28;20041;-48
2022/03/26 22:02:08;;;;;;;2.45;1.05;;;11.00;99.90;;;;;;20771986;28;20457;-47
2022/03/26 22:12:09;;;;;;;2.13;0.88;;;11.00;99.90;;;;;;20772594;28;20626;-48
2022/03/26 22:22:10;;;;;;;1.95;0.80;;;11.10;99.90;;;;;;20781229;28;20049;-47
2022/03/26 22:32:11;;;;;;;1.38;0.60;;;11.10;99.90;;;;;;20761433;28;20049;-47
2022/03/26 22:42:12;;;;;;;1.48;0.80;;;11.00;99.90;;;;;;20782476;28;20057;-48
2022/03/26 22:52:14;;;;;;;1.42;0.73;;;10.90;99.90;;;;;;20793538;28;20046;-47
2022/03/26 23:02:15;;;;;;;2.13;0.63;;;10.90;99.90;;;;;;20782257;28;20045;-47
2022/03/26 23:12:16;;;;;;;1.45;0.55;;;11.00;99.90;;;;;;20785201;28;20422;-47
2022/03/26 23:22:17;;;;;;;3.47;1.23;;;10.90;99.90;;;;;;20790855;28;20041;-48
2022/03/26 23:32:19;;;;;;;2.75;1.05;;;11.00;99.90;;;;;;20799386;28;20045;-47
2022/03/26 23:42:20;;;;;;;2.92;1.52;;;10.90;99.90;;;;;;20789830;28;20060;-47
2022/03/26 23:52:25;;;;;;;3.78;1.38;;;11.00;99.90;;;;;;20797870;28;20203;-47
